Nisula, MI

10:11 AM EDT on August 31, 2015 (GMT -0400)
MesoWest | | Change Station
CLOSE
Current Station
Personal Weather Station
Location: Kenton, MI
Elevation: 1521 ft
Nearby Weather Stations

Elev 1521 ft 46.48 °N, 88.99 °W | Updated 41 minutes ago

Partly Cloudy
Partly Cloudy
67 °F
Feels Like 67 °F
N
2
Wind Variable Wind from West
Gusts 4.0 mph

Today
High -- | Low -- °F
--% Chance of Precip.
Yesterday
High -- | Low -- °F
Precip. -- in
7:13 AM 8:37 PM
Waning Gibbous, 95% visible
Pressure 30.01 in
Visibility 10.0 miles
Clouds Scattered Clouds 600 ft
Dew Point 63 °F
Humidity 87%
Rainfall in
Snow Depth Not available.
UV 1 out of 12
Pollen 10.20 out of 12
Air Quality Not available.
Flu Activity Not available.
METAR KLNL 311315Z AUTO 22006KT 10SM SCT006 19/17 A3001 RMK AO2 T01860166
Pressure 30.01 in
Visibility 10.0 miles
Clouds Scattered Clouds 600 ft
Dew Point 63 °F
Humidity 87%
Rainfall in
Snow Depth Not available.
UV 1 out of 12
Pollen 10.20 out of 12
Air Quality Not available.
Flu Activity Not available.
METAR KLNL 311315Z AUTO 22006KT 10SM SCT006 19/17 A3001 RMK AO2 T01860166

10-Day Weather Forecast

×

Almanac

Astronomy

Aug. 31, 2015 Rise Set
Actual Time
Civil Twilight
Nautical Twilight
Astronomical Twilight
Moon
Length of Visible Light
Length of Day
Tomorrow will be .
, % of the Moon is Illuminated

Today's Extremes

State Highs State Lows

Community

WunderPhotos

Upload Photos

1,851,244 photos uploaded!

WunderBlogs® & News

Nearby

Air Quality

  Air Quality AQ Index Pollutant
Not available.

Snow Depth

Station Depth Elevation

Earthquake Activity

City Distance Mag. Time & Date
Minimum magnitude displayed is 2.5.

Coastal Water Temperatures

Place Temperature

Stations

Nearby Weather Stations

Station Location Temp. Windchill Dew Point Humidity Wind Precip. Elev Updated Type